Marcelin, Canada
Current Conditions -  °F | °C
As of 6:00 AM on Thursday 29 Jan 2015 (Local Time) from CYPA Reporting Station
Light Snow Light Snow  
Wind Chill: -2°   Ceiling: 1400
Heat Index: -2°   Visibility: 15mi
Dew Point: -6°   Wind: 3mph
Humidity: 85%   Direction: 290°WNW
Pressure: 30.53"   Gusts: NA
Location:  52.93°N, 106.78°W
Report Text: CYPA 291200Z 29003KT 15SM -SN OVC014 M19/M21 A3053 RMK SC8 SLP381
Loading
Personal Weather Stations






























Interactive Weather Map New forecast layout! Learn more

10-Day Weather Forecast

Advertisements
Track Severe Weather on mobile